sensor_id;sensor_type;location;lat;lon;timestamp;P1;durP1;ratioP1;P2;durP2;ratioP2
13445;SDS011;6795;51.232;3.764;2023-03-31T00:01:08;10.98;;;1.58;;
13445;SDS011;6795;51.232;3.764;2023-03-31T00:03:37;14.45;;;1.70;;
13445;SDS011;6795;51.232;3.764;2023-03-31T00:06:10;10.88;;;1.27;;
13445;SDS011;6795;51.232;3.764;2023-03-31T00:08:44;12.05;;;1.10;;
13445;SDS011;6795;51.232;3.764;2023-03-31T00:11:19;13.45;;;1.35;;
13445;SDS011;6795;51.232;3.764;2023-03-31T00:13:49;15.60;;;1.90;;
13445;SDS011;6795;51.232;3.764;2023-03-31T00:16:17;12.60;;;1.55;;
13445;SDS011;6795;51.232;3.764;2023-03-31T00:18:46;14.35;;;1.45;;
13445;SDS011;6795;51.232;3.764;2023-03-31T00:21:17;16.50;;;1.80;;
13445;SDS011;6795;51.232;3.764;2023-03-31T00:23:59;14.88;;;2.55;;
13445;SDS011;6795;51.232;3.764;2023-03-31T00:26:32;16.63;;;1.92;;
13445;SDS011;6795;51.232;3.764;2023-03-31T00:29:02;11.27;;;1.40;;
13445;SDS011;6795;51.232;3.764;2023-03-31T00:31:31;11.00;;;1.67;;
13445;SDS011;6795;51.232;3.764;2023-03-31T00:34:00;16.38;;;1.73;;
13445;SDS011;6795;51.232;3.764;2023-03-31T00:36:29;15.40;;;1.10;;
13445;SDS011;6795;51.232;3.764;2023-03-31T00:38:58;20.23;;;3.03;;
13445;SDS011;6795;51.232;3.764;2023-03-31T00:41:30;16.08;;;1.73;;
13445;SDS011;6795;51.232;3.764;2023-03-31T00:44:00;16.83;;;1.85;;
13445;SDS011;6795;51.232;3.764;2023-03-31T00:46:36;14.73;;;1.70;;
13445;SDS011;6795;51.232;3.764;2023-03-31T00:49:11;10.55;;;1.77;;
13445;SDS011;6795;51.232;3.764;2023-03-31T00:51:46;16.02;;;1.90;;
13445;SDS011;6795;51.232;3.764;2023-03-31T00:54:17;14.02;;;1.50;;
13445;SDS011;6795;51.232;3.764;2023-03-31T00:56:48;14.68;;;1.20;;
13445;SDS011;6795;51.232;3.764;2023-03-31T00:59:21;14.52;;;1.25;;
13445;SDS011;6795;51.232;3.764;2023-03-31T01:01:54;11.48;;;1.25;;
13445;SDS011;6795;51.232;3.764;2023-03-31T01:04:29;11.80;;;1.13;;
13445;SDS011;6795;51.232;3.764;2023-03-31T01:07:02;12.20;;;1.27;;
13445;SDS011;6795;51.232;3.764;2023-03-31T01:09:35;9.07;;;1.33;;
13445;SDS011;6795;51.232;3.764;2023-03-31T01:12:07;11.85;;;1.67;;
13445;SDS011;6795;51.232;3.764;2023-03-31T01:14:37;10.45;;;1.35;;
13445;SDS011;6795;51.232;3.764;2023-03-31T01:17:06;8.63;;;1.15;;
13445;SDS011;6795;51.232;3.764;2023-03-31T01:19:41;15.55;;;1.45;;
13445;SDS011;6795;51.232;3.764;2023-03-31T01:28:23;8.80;;;1.20;;
13445;SDS011;6795;51.232;3.764;2023-03-31T01:34:13;10.65;;;1.80;;
13445;SDS011;6795;51.232;3.764;2023-03-31T01:40:14;14.20;;;2.55;;
13445;SDS011;6795;51.232;3.764;2023-03-31T01:42:57;16.83;;;2.25;;
13445;SDS011;6795;51.232;3.764;2023-03-31T01:45:34;16.70;;;1.88;;
13445;SDS011;6795;51.232;3.764;2023-03-31T01:48:11;11.43;;;1.70;;
13445;SDS011;6795;51.232;3.764;2023-03-31T01:50:44;13.95;;;1.65;;
13445;SDS011;6795;51.232;3.764;2023-03-31T01:53:16;10.48;;;1.17;;
13445;SDS011;6795;51.232;3.764;2023-03-31T01:55:51;12.27;;;1.10;;
13445;SDS011;6795;51.232;3.764;2023-03-31T01:58:30;16.38;;;1.83;;
13445;SDS011;6795;51.232;3.764;2023-03-31T02:01:05;12.70;;;1.98;;
13445;SDS011;6795;51.232;3.764;2023-03-31T02:03:43;8.02;;;1.77;;
13445;SDS011;6795;51.232;3.764;2023-03-31T02:06:16;10.50;;;1.13;;
13445;SDS011;6795;51.232;3.764;2023-03-31T02:08:50;9.57;;;1.67;;
13445;SDS011;6795;51.232;3.764;2023-03-31T02:11:25;13.27;;;1.65;;
13445;SDS011;6795;51.232;3.764;2023-03-31T02:13:57;13.63;;;1.85;;
13445;SDS011;6795;51.232;3.764;2023-03-31T02:16:29;11.43;;;1.55;;
13445;SDS011;6795;51.232;3.764;2023-03-31T02:19:02;12.38;;;1.52;;
13445;SDS011;6795;51.232;3.764;2023-03-31T02:21:32;14.10;;;2.00;;
13445;SDS011;6795;51.232;3.764;2023-03-31T02:24:04;13.98;;;2.13;;
13445;SDS011;6795;51.232;3.764;2023-03-31T02:26:40;14.75;;;1.20;;
13445;SDS011;6795;51.232;3.764;2023-03-31T02:29:11;9.90;;;1.27;;
13445;SDS011;6795;51.232;3.764;2023-03-31T02:31:41;10.30;;;1.27;;
13445;SDS011;6795;51.232;3.764;2023-03-31T02:34:14;10.57;;;1.13;;
13445;SDS011;6795;51.232;3.764;2023-03-31T02:36:42;13.90;;;2.25;;
13445;SDS011;6795;51.232;3.764;2023-03-31T02:39:14;13.27;;;3.58;;
13445;SDS011;6795;51.232;3.764;2023-03-31T02:41:45;9.65;;;1.70;;
13445;SDS011;6795;51.232;3.764;2023-03-31T02:44:13;13.32;;;1.55;;
13445;SDS011;6795;51.232;3.764;2023-03-31T02:46:42;10.75;;;1.60;;
13445;SDS011;6795;51.232;3.764;2023-03-31T02:49:12;12.65;;;1.58;;
13445;SDS011;6795;51.232;3.764;2023-03-31T02:57:48;5.68;;;0.80;;
13445;SDS011;6795;51.232;3.764;2023-03-31T03:00:22;10.02;;;1.42;;
13445;SDS011;6795;51.232;3.764;2023-03-31T03:02:57;6.63;;;1.27;;
13445;SDS011;6795;51.232;3.764;2023-03-31T03:05:31;8.80;;;1.45;;
13445;SDS011;6795;51.232;3.764;2023-03-31T03:08:06;5.95;;;1.00;;
13445;SDS011;6795;51.232;3.764;2023-03-31T03:10:38;5.47;;;0.95;;
13445;SDS011;6795;51.232;3.764;2023-03-31T03:13:14;4.55;;;0.95;;
13445;SDS011;6795;51.232;3.764;2023-03-31T03:15:46;8.05;;;0.75;;
13445;SDS011;6795;51.232;3.764;2023-03-31T03:18:17;8.82;;;1.15;;
13445;SDS011;6795;51.232;3.764;2023-03-31T03:20:46;4.43;;;0.70;;
13445;SDS011;6795;51.232;3.764;2023-03-31T03:23:16;3.80;;;0.80;;
13445;SDS011;6795;51.232;3.764;2023-03-31T03:25:45;1.63;;;0.32;;
13445;SDS011;6795;51.232;3.764;2023-03-31T03:28:15;5.82;;;0.70;;
13445;SDS011;6795;51.232;3.764;2023-03-31T03:30:43;2.92;;;0.45;;
13445;SDS011;6795;51.232;3.764;2023-03-31T03:33:12;1.25;;;0.40;;
13445;SDS011;6795;51.232;3.764;2023-03-31T03:35:42;5.15;;;0.73;;
13445;SDS011;6795;51.232;3.764;2023-03-31T03:38:11;1.95;;;0.40;;
13445;SDS011;6795;51.232;3.764;2023-03-31T03:40:40;5.35;;;0.40;;
13445;SDS011;6795;51.232;3.764;2023-03-31T03:43:08;2.67;;;0.25;;
13445;SDS011;6795;51.232;3.764;2023-03-31T03:45:39;1.75;;;0.20;;
13445;SDS011;6795;51.232;3.764;2023-03-31T03:48:07;1.33;;;0.20;;
13445;SDS011;6795;51.232;3.764;2023-03-31T03:50:36;2.47;;;0.20;;
13445;SDS011;6795;51.232;3.764;2023-03-31T03:53:05;1.08;;;0.10;;
13445;SDS011;6795;51.232;3.764;2023-03-31T03:55:33;1.33;;;0.10;;
13445;SDS011;6795;51.232;3.764;2023-03-31T03:58:02;1.13;;;0.20;;
13445;SDS011;6795;51.232;3.764;2023-03-31T04:00:31;2.35;;;0.20;;
13445;SDS011;6795;51.232;3.764;2023-03-31T04:03:01;0.65;;;0.10;;
13445;SDS011;6795;51.232;3.764;2023-03-31T04:05:29;2.10;;;0.10;;
13445;SDS011;6795;51.232;3.764;2023-03-31T04:07:58;1.58;;;0.45;;
13445;SDS011;6795;51.232;3.764;2023-03-31T04:10:26;0.95;;;0.10;;
13445;SDS011;6795;51.232;3.764;2023-03-31T04:12:55;1.33;;;0.10;;
13445;SDS011;6795;51.232;3.764;2023-03-31T04:15:23;0.65;;;0.00;;
13445;SDS011;6795;51.232;3.764;2023-03-31T04:17:52;1.80;;;0.20;;
13445;SDS011;6795;51.232;3.764;2023-03-31T04:20:25;0.98;;;0.10;;
13445;SDS011;6795;51.232;3.764;2023-03-31T04:22:56;1.27;;;0.13;;
13445;SDS011;6795;51.232;3.764;2023-03-31T04:25:24;2.55;;;0.10;;
13445;SDS011;6795;51.232;3.764;2023-03-31T04:27:56;2.60;;;0.38;;
13445;SDS011;6795;51.232;3.764;2023-03-31T04:30:25;0.63;;;0.10;;
13445;SDS011;6795;51.232;3.764;2023-03-31T04:32:58;1.25;;;0.10;;
13445;SDS011;6795;51.232;3.764;2023-03-31T04:35:29;0.10;;;0.10;;
13445;SDS011;6795;51.232;3.764;2023-03-31T04:38:08;2.28;;;0.30;;
13445;SDS011;6795;51.232;3.764;2023-03-31T04:40:37;0.68;;;0.08;;
13445;SDS011;6795;51.232;3.764;2023-03-31T04:43:08;1.70;;;0.20;;
13445;SDS011;6795;51.232;3.764;2023-03-31T04:45:36;1.33;;;0.20;;
13445;SDS011;6795;51.232;3.764;2023-03-31T04:48:05;1.00;;;0.10;;
13445;SDS011;6795;51.232;3.764;2023-03-31T04:50:35;0.28;;;0.10;;
13445;SDS011;6795;51.232;3.764;2023-03-31T04:53:03;0.57;;;0.10;;
13445;SDS011;6795;51.232;3.764;2023-03-31T04:55:32;1.77;;;0.20;;
13445;SDS011;6795;51.232;3.764;2023-03-31T04:58:01;2.20;;;0.30;;
13445;SDS011;6795;51.232;3.764;2023-03-31T05:00:30;2.03;;;0.28;;
13445;SDS011;6795;51.232;3.764;2023-03-31T05:02:58;4.35;;;0.50;;
13445;SDS011;6795;51.232;3.764;2023-03-31T05:05:27;2.63;;;0.45;;
13445;SDS011;6795;51.232;3.764;2023-03-31T05:07:57;5.47;;;0.73;;
13445;SDS011;6795;51.232;3.764;2023-03-31T05:10:25;3.13;;;0.50;;
13445;SDS011;6795;51.232;3.764;2023-03-31T05:12:54;4.28;;;0.40;;
13445;SDS011;6795;51.232;3.764;2023-03-31T05:15:22;5.57;;;0.55;;
13445;SDS011;6795;51.232;3.764;2023-03-31T05:17:51;4.05;;;0.63;;
13445;SDS011;6795;51.232;3.764;2023-03-31T05:20:20;3.45;;;0.52;;
13445;SDS011;6795;51.232;3.764;2023-03-31T05:22:48;3.83;;;1.77;;
13445;SDS011;6795;51.232;3.764;2023-03-31T05:25:18;7.70;;;0.73;;
13445;SDS011;6795;51.232;3.764;2023-03-31T05:27:48;7.35;;;1.25;;
13445;SDS011;6795;51.232;3.764;2023-03-31T05:30:17;6.32;;;0.98;;
13445;SDS011;6795;51.232;3.764;2023-03-31T05:32:46;6.75;;;0.90;;
13445;SDS011;6795;51.232;3.764;2023-03-31T05:35:14;4.95;;;0.82;;
13445;SDS011;6795;51.232;3.764;2023-03-31T05:37:43;5.15;;;0.95;;
13445;SDS011;6795;51.232;3.764;2023-03-31T05:40:12;6.28;;;1.00;;
13445;SDS011;6795;51.232;3.764;2023-03-31T05:42:42;14.27;;;1.58;;
13445;SDS011;6795;51.232;3.764;2023-03-31T05:45:10;10.57;;;1.30;;
13445;SDS011;6795;51.232;3.764;2023-03-31T05:47:39;18.70;;;2.30;;
13445;SDS011;6795;51.232;3.764;2023-03-31T05:50:08;11.07;;;1.30;;
13445;SDS011;6795;51.232;3.764;2023-03-31T05:52:40;14.68;;;1.60;;
13445;SDS011;6795;51.232;3.764;2023-03-31T05:55:09;13.73;;;1.35;;
13445;SDS011;6795;51.232;3.764;2023-03-31T05:57:39;11.57;;;1.10;;
13445;SDS011;6795;51.232;3.764;2023-03-31T06:00:09;10.93;;;1.52;;
13445;SDS011;6795;51.232;3.764;2023-03-31T06:02:38;8.50;;;1.83;;
13445;SDS011;6795;51.232;3.764;2023-03-31T06:05:08;8.32;;;0.98;;
13445;SDS011;6795;51.232;3.764;2023-03-31T06:07:36;9.02;;;1.10;;
13445;SDS011;6795;51.232;3.764;2023-03-31T06:10:05;11.07;;;1.63;;
13445;SDS011;6795;51.232;3.764;2023-03-31T06:12:36;7.93;;;1.60;;
13445;SDS011;6795;51.232;3.764;2023-03-31T06:15:05;11.63;;;2.03;;
13445;SDS011;6795;51.232;3.764;2023-03-31T06:17:35;12.23;;;1.92;;
13445;SDS011;6795;51.232;3.764;2023-03-31T06:20:04;14.20;;;1.70;;
13445;SDS011;6795;51.232;3.764;2023-03-31T06:22:52;9.90;;;2.40;;
13445;SDS011;6795;51.232;3.764;2023-03-31T06:25:21;11.52;;;1.48;;
13445;SDS011;6795;51.232;3.764;2023-03-31T06:27:50;11.07;;;1.30;;
13445;SDS011;6795;51.232;3.764;2023-03-31T06:30:19;15.20;;;1.83;;
13445;SDS011;6795;51.232;3.764;2023-03-31T06:32:49;12.57;;;2.03;;
13445;SDS011;6795;51.232;3.764;2023-03-31T06:35:18;9.88;;;1.65;;
13445;SDS011;6795;51.232;3.764;2023-03-31T06:37:46;14.85;;;1.77;;
13445;SDS011;6795;51.232;3.764;2023-03-31T06:40:15;17.77;;;2.33;;
13445;SDS011;6795;51.232;3.764;2023-03-31T06:42:44;14.40;;;2.25;;
13445;SDS011;6795;51.232;3.764;2023-03-31T06:45:13;5.82;;;0.93;;
13445;SDS011;6795;51.232;3.764;2023-03-31T06:47:41;18.33;;;2.63;;
13445;SDS011;6795;51.232;3.764;2023-03-31T06:50:11;10.50;;;1.80;;
13445;SDS011;6795;51.232;3.764;2023-03-31T06:52:42;15.65;;;2.03;;
13445;SDS011;6795;51.232;3.764;2023-03-31T06:55:11;11.63;;;1.65;;
13445;SDS011;6795;51.232;3.764;2023-03-31T06:57:41;17.55;;;1.85;;
13445;SDS011;6795;51.232;3.764;2023-03-31T07:00:09;8.32;;;1.70;;
13445;SDS011;6795;51.232;3.764;2023-03-31T07:02:39;12.32;;;2.38;;
13445;SDS011;6795;51.232;3.764;2023-03-31T07:05:07;18.55;;;2.58;;
13445;SDS011;6795;51.232;3.764;2023-03-31T07:07:37;21.35;;;2.45;;
13445;SDS011;6795;51.232;3.764;2023-03-31T07:10:11;15.35;;;2.00;;
13445;SDS011;6795;51.232;3.764;2023-03-31T07:12:40;16.23;;;2.50;;
13445;SDS011;6795;51.232;3.764;2023-03-31T07:15:08;18.98;;;2.05;;
13445;SDS011;6795;51.232;3.764;2023-03-31T07:17:37;18.92;;;2.00;;
13445;SDS011;6795;51.232;3.764;2023-03-31T07:20:07;13.45;;;2.35;;
13445;SDS011;6795;51.232;3.764;2023-03-31T07:22:40;15.98;;;2.45;;
13445;SDS011;6795;51.232;3.764;2023-03-31T07:25:09;11.15;;;1.55;;
13445;SDS011;6795;51.232;3.764;2023-03-31T07:27:38;14.02;;;1.75;;
13445;SDS011;6795;51.232;3.764;2023-03-31T07:30:07;14.38;;;1.73;;
13445;SDS011;6795;51.232;3.764;2023-03-31T07:32:38;16.75;;;2.05;;
13445;SDS011;6795;51.232;3.764;2023-03-31T07:35:07;14.90;;;2.40;;
13445;SDS011;6795;51.232;3.764;2023-03-31T07:37:36;17.67;;;1.90;;
13445;SDS011;6795;51.232;3.764;2023-03-31T07:40:08;19.95;;;2.15;;
13445;SDS011;6795;51.232;3.764;2023-03-31T07:42:38;19.17;;;2.47;;
13445;SDS011;6795;51.232;3.764;2023-03-31T07:45:07;19.92;;;2.55;;
13445;SDS011;6795;51.232;3.764;2023-03-31T07:47:36;12.75;;;2.17;;
13445;SDS011;6795;51.232;3.764;2023-03-31T07:50:06;12.98;;;2.25;;
13445;SDS011;6795;51.232;3.764;2023-03-31T07:55:25;20.40;;;3.15;;
13445;SDS011;6795;51.232;3.764;2023-03-31T07:57:54;27.60;;;3.38;;
13445;SDS011;6795;51.232;3.764;2023-03-31T08:00:22;16.73;;;3.10;;
13445;SDS011;6795;51.232;3.764;2023-03-31T08:02:51;13.60;;;2.30;;
13445;SDS011;6795;51.232;3.764;2023-03-31T08:05:20;20.50;;;2.50;;
13445;SDS011;6795;51.232;3.764;2023-03-31T08:07:48;18.10;;;2.03;;
13445;SDS011;6795;51.232;3.764;2023-03-31T08:10:19;20.63;;;1.90;;
13445;SDS011;6795;51.232;3.764;2023-03-31T08:12:51;18.65;;;2.63;;
13445;SDS011;6795;51.232;3.764;2023-03-31T08:15:21;18.48;;;2.08;;
13445;SDS011;6795;51.232;3.764;2023-03-31T08:17:50;14.40;;;2.20;;
13445;SDS011;6795;51.232;3.764;2023-03-31T08:20:18;15.75;;;2.13;;
13445;SDS011;6795;51.232;3.764;2023-03-31T08:22:47;18.17;;;3.13;;
13445;SDS011;6795;51.232;3.764;2023-03-31T08:25:15;15.82;;;2.03;;
13445;SDS011;6795;51.232;3.764;2023-03-31T08:27:43;12.10;;;2.20;;
13445;SDS011;6795;51.232;3.764;2023-03-31T08:30:16;23.33;;;3.17;;
13445;SDS011;6795;51.232;3.764;2023-03-31T08:32:46;17.15;;;2.30;;
13445;SDS011;6795;51.232;3.764;2023-03-31T08:35:14;14.18;;;1.77;;
13445;SDS011;6795;51.232;3.764;2023-03-31T08:37:43;11.75;;;1.77;;
13445;SDS011;6795;51.232;3.764;2023-03-31T08:40:13;17.75;;;2.45;;
13445;SDS011;6795;51.232;3.764;2023-03-31T08:42:48;15.70;;;2.20;;
13445;SDS011;6795;51.232;3.764;2023-03-31T08:45:19;11.55;;;1.90;;
13445;SDS011;6795;51.232;3.764;2023-03-31T08:47:51;11.48;;;1.48;;
13445;SDS011;6795;51.232;3.764;2023-03-31T08:50:23;12.25;;;2.17;;
13445;SDS011;6795;51.232;3.764;2023-03-31T08:52:56;11.80;;;2.03;;
13445;SDS011;6795;51.232;3.764;2023-03-31T08:55:33;9.70;;;1.55;;
13445;SDS011;6795;51.232;3.764;2023-03-31T08:58:12;17.38;;;2.38;;
13445;SDS011;6795;51.232;3.764;2023-03-31T09:00:53;13.20;;;1.67;;
13445;SDS011;6795;51.232;3.764;2023-03-31T09:03:30;11.70;;;1.75;;
13445;SDS011;6795;51.232;3.764;2023-03-31T09:06:05;10.63;;;1.60;;
13445;SDS011;6795;51.232;3.764;2023-03-31T09:08:37;12.65;;;2.60;;
13445;SDS011;6795;51.232;3.764;2023-03-31T09:11:09;8.73;;;1.88;;
13445;SDS011;6795;51.232;3.764;2023-03-31T09:13:46;8.82;;;1.10;;
13445;SDS011;6795;51.232;3.764;2023-03-31T09:16:40;10.60;;;1.30;;
13445;SDS011;6795;51.232;3.764;2023-03-31T09:19:15;6.00;;;0.70;;
13445;SDS011;6795;51.232;3.764;2023-03-31T09:21:48;15.02;;;1.60;;
13445;SDS011;6795;51.232;3.764;2023-03-31T09:24:20;10.60;;;1.70;;
13445;SDS011;6795;51.232;3.764;2023-03-31T09:26:57;18.90;;;1.85;;
13445;SDS011;6795;51.232;3.764;2023-03-31T09:29:29;9.77;;;1.00;;
13445;SDS011;6795;51.232;3.764;2023-03-31T09:32:08;7.18;;;1.00;;
13445;SDS011;6795;51.232;3.764;2023-03-31T09:34:42;12.38;;;1.30;;
13445;SDS011;6795;51.232;3.764;2023-03-31T09:37:11;16.50;;;1.80;;
13445;SDS011;6795;51.232;3.764;2023-03-31T09:39:40;13.50;;;1.20;;
13445;SDS011;6795;51.232;3.764;2023-03-31T09:42:09;11.25;;;1.70;;
13445;SDS011;6795;51.232;3.764;2023-03-31T09:44:40;7.88;;;0.80;;
13445;SDS011;6795;51.232;3.764;2023-03-31T09:47:13;16.23;;;1.83;;
13445;SDS011;6795;51.232;3.764;2023-03-31T09:49:46;16.52;;;1.58;;
13445;SDS011;6795;51.232;3.764;2023-03-31T09:52:23;17.88;;;2.35;;
13445;SDS011;6795;51.232;3.764;2023-03-31T09:54:57;10.85;;;1.70;;
13445;SDS011;6795;51.232;3.764;2023-03-31T09:57:28;18.63;;;1.90;;
13445;SDS011;6795;51.232;3.764;2023-03-31T10:00:04;17.17;;;2.38;;
13445;SDS011;6795;51.232;3.764;2023-03-31T10:02:46;14.57;;;1.98;;
13445;SDS011;6795;51.232;3.764;2023-03-31T10:05:18;17.77;;;2.90;;
13445;SDS011;6795;51.232;3.764;2023-03-31T10:07:48;15.23;;;3.15;;
13445;SDS011;6795;51.232;3.764;2023-03-31T10:10:21;16.02;;;2.75;;
13445;SDS011;6795;51.232;3.764;2023-03-31T10:12:51;14.93;;;2.45;;
13445;SDS011;6795;51.232;3.764;2023-03-31T10:15:20;17.38;;;2.33;;
13445;SDS011;6795;51.232;3.764;2023-03-31T10:17:51;13.20;;;1.70;;
13445;SDS011;6795;51.232;3.764;2023-03-31T10:20:29;13.45;;;1.67;;
13445;SDS011;6795;51.232;3.764;2023-03-31T10:23:03;11.00;;;1.70;;
13445;SDS011;6795;51.232;3.764;2023-03-31T10:25:42;9.52;;;0.93;;
13445;SDS011;6795;51.232;3.764;2023-03-31T10:28:14;6.30;;;1.30;;
13445;SDS011;6795;51.232;3.764;2023-03-31T10:30:46;5.57;;;1.40;;
13445;SDS011;6795;51.232;3.764;2023-03-31T10:33:22;9.55;;;1.25;;
13445;SDS011;6795;51.232;3.764;2023-03-31T10:35:53;11.65;;;1.35;;
13445;SDS011;6795;51.232;3.764;2023-03-31T10:38:24;10.38;;;1.90;;
13445;SDS011;6795;51.232;3.764;2023-03-31T10:40:54;6.40;;;1.02;;
13445;SDS011;6795;51.232;3.764;2023-03-31T10:43:24;12.40;;;1.58;;
13445;SDS011;6795;51.232;3.764;2023-03-31T10:45:54;9.95;;;1.30;;
13445;SDS011;6795;51.232;3.764;2023-03-31T10:48:25;14.52;;;1.45;;
13445;SDS011;6795;51.232;3.764;2023-03-31T10:50:54;14.25;;;1.65;;
13445;SDS011;6795;51.232;3.764;2023-03-31T10:53:26;12.82;;;1.40;;
13445;SDS011;6795;51.232;3.764;2023-03-31T10:55:58;12.02;;;1.45;;
13445;SDS011;6795;51.232;3.764;2023-03-31T10:58:33;15.77;;;2.22;;
13445;SDS011;6795;51.232;3.764;2023-03-31T11:01:06;16.13;;;1.95;;
13445;SDS011;6795;51.232;3.764;2023-03-31T11:03:44;11.20;;;1.80;;
13445;SDS011;6795;51.232;3.764;2023-03-31T11:06:19;12.70;;;1.65;;
13445;SDS011;6795;51.232;3.764;2023-03-31T11:08:51;15.57;;;1.90;;
13445;SDS011;6795;51.232;3.764;2023-03-31T11:11:38;7.10;;;1.63;;
13445;SDS011;6795;51.232;3.764;2023-03-31T11:14:12;15.60;;;1.95;;
13445;SDS011;6795;51.232;3.764;2023-03-31T11:16:45;15.40;;;1.75;;
13445;SDS011;6795;51.232;3.764;2023-03-31T11:19:24;11.13;;;1.67;;
13445;SDS011;6795;51.232;3.764;2023-03-31T11:22:05;9.38;;;1.40;;
13445;SDS011;6795;51.232;3.764;2023-03-31T11:24:46;7.90;;;1.05;;
13445;SDS011;6795;51.232;3.764;2023-03-31T11:27:32;5.32;;;0.60;;
13445;SDS011;6795;51.232;3.764;2023-03-31T11:30:15;5.03;;;0.57;;
13445;SDS011;6795;51.232;3.764;2023-03-31T11:32:47;5.32;;;0.77;;
13445;SDS011;6795;51.232;3.764;2023-03-31T11:35:33;7.15;;;0.73;;
13445;SDS011;6795;51.232;3.764;2023-03-31T11:38:17;9.77;;;1.02;;
13445;SDS011;6795;51.232;3.764;2023-03-31T11:41:07;7.90;;;0.80;;
13445;SDS011;6795;51.232;3.764;2023-03-31T11:43:39;7.05;;;1.20;;
13445;SDS011;6795;51.232;3.764;2023-03-31T11:46:12;7.53;;;1.08;;
13445;SDS011;6795;51.232;3.764;2023-03-31T11:48:45;6.00;;;1.20;;
13445;SDS011;6795;51.232;3.764;2023-03-31T11:51:19;5.07;;;0.80;;
13445;SDS011;6795;51.232;3.764;2023-03-31T11:53:53;7.45;;;1.40;;
13445;SDS011;6795;51.232;3.764;2023-03-31T11:56:26;7.50;;;0.77;;
13445;SDS011;6795;51.232;3.764;2023-03-31T11:58:59;9.57;;;0.77;;
13445;SDS011;6795;51.232;3.764;2023-03-31T12:01:32;3.65;;;0.55;;
13445;SDS011;6795;51.232;3.764;2023-03-31T12:04:10;10.13;;;1.58;;
13445;SDS011;6795;51.232;3.764;2023-03-31T12:06:50;8.23;;;1.25;;
13445;SDS011;6795;51.232;3.764;2023-03-31T12:09:22;6.75;;;0.55;;
13445;SDS011;6795;51.232;3.764;2023-03-31T12:11:58;6.47;;;0.98;;
13445;SDS011;6795;51.232;3.764;2023-03-31T12:14:32;4.30;;;0.50;;
13445;SDS011;6795;51.232;3.764;2023-03-31T12:17:08;6.63;;;0.80;;
13445;SDS011;6795;51.232;3.764;2023-03-31T12:19:41;3.63;;;0.57;;
13445;SDS011;6795;51.232;3.764;2023-03-31T12:22:18;9.32;;;0.93;;
13445;SDS011;6795;51.232;3.764;2023-03-31T12:24:52;3.92;;;0.57;;
13445;SDS011;6795;51.232;3.764;2023-03-31T12:27:22;6.80;;;1.25;;
13445;SDS011;6795;51.232;3.764;2023-03-31T12:29:54;5.28;;;0.73;;
13445;SDS011;6795;51.232;3.764;2023-03-31T12:32:26;6.50;;;1.70;;
13445;SDS011;6795;51.232;3.764;2023-03-31T12:34:56;4.43;;;0.50;;
13445;SDS011;6795;51.232;3.764;2023-03-31T12:40:20;4.18;;;0.38;;
13445;SDS011;6795;51.232;3.764;2023-03-31T12:42:58;5.60;;;0.90;;
13445;SDS011;6795;51.232;3.764;2023-03-31T12:45:30;6.35;;;0.30;;
13445;SDS011;6795;51.232;3.764;2023-03-31T12:48:05;8.88;;;0.90;;
13445;SDS011;6795;51.232;3.764;2023-03-31T12:50:40;5.72;;;0.50;;
13445;SDS011;6795;51.232;3.764;2023-03-31T12:53:17;5.57;;;0.43;;
13445;SDS011;6795;51.232;3.764;2023-03-31T12:55:48;2.08;;;0.35;;
13445;SDS011;6795;51.232;3.764;2023-03-31T13:01:09;5.55;;;0.47;;
13445;SDS011;6795;51.232;3.764;2023-03-31T13:03:47;6.97;;;0.95;;
13445;SDS011;6795;51.232;3.764;2023-03-31T13:09:38;3.65;;;1.02;;
13445;SDS011;6795;51.232;3.764;2023-03-31T13:12:11;6.97;;;0.40;;
13445;SDS011;6795;51.232;3.764;2023-03-31T13:14:41;2.33;;;0.52;;
13445;SDS011;6795;51.232;3.764;2023-03-31T13:17:12;2.28;;;0.30;;
13445;SDS011;6795;51.232;3.764;2023-03-31T13:19:41;6.07;;;0.60;;
13445;SDS011;6795;51.232;3.764;2023-03-31T13:22:26;3.67;;;0.40;;
13445;SDS011;6795;51.232;3.764;2023-03-31T13:27:48;1.25;;;0.30;;
13445;SDS011;6795;51.232;3.764;2023-03-31T13:33:06;3.55;;;0.80;;
13445;SDS011;6795;51.232;3.764;2023-03-31T13:35:36;2.45;;;0.30;;
13445;SDS011;6795;51.232;3.764;2023-03-31T13:38:07;4.32;;;0.70;;
13445;SDS011;6795;51.232;3.764;2023-03-31T13:40:53;3.53;;;0.50;;
13445;SDS011;6795;51.232;3.764;2023-03-31T13:43:30;3.45;;;0.40;;
13445;SDS011;6795;51.232;3.764;2023-03-31T13:46:06;4.30;;;0.50;;
13445;SDS011;6795;51.232;3.764;2023-03-31T13:48:47;4.05;;;0.63;;
13445;SDS011;6795;51.232;3.764;2023-03-31T13:57:04;4.07;;;1.15;;
13445;SDS011;6795;51.232;3.764;2023-03-31T13:59:48;7.57;;;0.75;;
13445;SDS011;6795;51.232;3.764;2023-03-31T14:02:33;6.93;;;0.98;;
13445;SDS011;6795;51.232;3.764;2023-03-31T14:05:16;3.72;;;0.70;;
13445;SDS011;6795;51.232;3.764;2023-03-31T14:07:48;2.65;;;0.43;;
13445;SDS011;6795;51.232;3.764;2023-03-31T14:10:21;5.38;;;1.02;;
13445;SDS011;6795;51.232;3.764;2023-03-31T14:12:50;6.20;;;0.73;;
13445;SDS011;6795;51.232;3.764;2023-03-31T14:15:20;2.70;;;0.50;;
13445;SDS011;6795;51.232;3.764;2023-03-31T14:17:49;5.13;;;0.45;;
13445;SDS011;6795;51.232;3.764;2023-03-31T14:20:23;5.80;;;0.30;;
13445;SDS011;6795;51.232;3.764;2023-03-31T14:22:55;1.95;;;0.30;;
13445;SDS011;6795;51.232;3.764;2023-03-31T14:25:31;4.40;;;0.40;;
13445;SDS011;6795;51.232;3.764;2023-03-31T14:28:04;4.00;;;0.50;;
13445;SDS011;6795;51.232;3.764;2023-03-31T14:30:41;6.60;;;0.60;;
13445;SDS011;6795;51.232;3.764;2023-03-31T14:33:19;4.75;;;0.43;;
13445;SDS011;6795;51.232;3.764;2023-03-31T14:35:53;5.95;;;0.70;;
13445;SDS011;6795;51.232;3.764;2023-03-31T14:38:23;9.30;;;1.27;;
13445;SDS011;6795;51.232;3.764;2023-03-31T14:40:54;3.00;;;0.60;;
13445;SDS011;6795;51.232;3.764;2023-03-31T14:43:27;6.93;;;1.33;;
13445;SDS011;6795;51.232;3.764;2023-03-31T14:46:02;5.75;;;0.68;;
13445;SDS011;6795;51.232;3.764;2023-03-31T14:48:32;4.28;;;0.50;;
13445;SDS011;6795;51.232;3.764;2023-03-31T14:51:01;7.05;;;1.05;;
13445;SDS011;6795;51.232;3.764;2023-03-31T14:53:31;6.22;;;1.23;;
13445;SDS011;6795;51.232;3.764;2023-03-31T14:56:03;4.22;;;0.60;;
13445;SDS011;6795;51.232;3.764;2023-03-31T14:58:34;11.15;;;1.00;;
13445;SDS011;6795;51.232;3.764;2023-03-31T15:01:06;6.18;;;1.67;;
13445;SDS011;6795;51.232;3.764;2023-03-31T15:03:38;4.53;;;0.43;;
13445;SDS011;6795;51.232;3.764;2023-03-31T15:06:08;2.72;;;0.70;;
13445;SDS011;6795;51.232;3.764;2023-03-31T15:08:37;1.95;;;0.40;;
13445;SDS011;6795;51.232;3.764;2023-03-31T15:11:07;5.80;;;1.00;;
13445;SDS011;6795;51.232;3.764;2023-03-31T15:13:40;3.10;;;0.50;;
13445;SDS011;6795;51.232;3.764;2023-03-31T15:16:32;2.92;;;0.43;;
13445;SDS011;6795;51.232;3.764;2023-03-31T15:19:04;7.63;;;0.90;;
13445;SDS011;6795;51.232;3.764;2023-03-31T15:21:35;4.70;;;0.80;;
13445;SDS011;6795;51.232;3.764;2023-03-31T15:24:04;11.85;;;1.48;;
13445;SDS011;6795;51.232;3.764;2023-03-31T15:26:34;4.38;;;0.77;;
13445;SDS011;6795;51.232;3.764;2023-03-31T15:29:07;10.48;;;0.95;;
13445;SDS011;6795;51.232;3.764;2023-03-31T15:31:45;7.80;;;1.25;;
13445;SDS011;6795;51.232;3.764;2023-03-31T15:34:16;15.23;;;2.38;;
13445;SDS011;6795;51.232;3.764;2023-03-31T15:37:09;11.90;;;1.80;;
13445;SDS011;6795;51.232;3.764;2023-03-31T15:39:38;12.77;;;1.63;;
13445;SDS011;6795;51.232;3.764;2023-03-31T15:42:11;7.60;;;1.50;;
13445;SDS011;6795;51.232;3.764;2023-03-31T15:44:43;7.53;;;1.45;;
13445;SDS011;6795;51.232;3.764;2023-03-31T15:47:18;11.70;;;1.40;;
13445;SDS011;6795;51.232;3.764;2023-03-31T15:49:52;11.00;;;1.73;;
13445;SDS011;6795;51.232;3.764;2023-03-31T15:52:24;12.30;;;1.08;;
13445;SDS011;6795;51.232;3.764;2023-03-31T15:54:59;10.90;;;1.45;;
13445;SDS011;6795;51.232;3.764;2023-03-31T15:57:30;7.85;;;1.20;;
13445;SDS011;6795;51.232;3.764;2023-03-31T16:00:02;6.63;;;0.98;;
13445;SDS011;6795;51.232;3.764;2023-03-31T16:02:39;10.98;;;1.58;;
13445;SDS011;6795;51.232;3.764;2023-03-31T16:05:20;12.07;;;1.50;;
13445;SDS011;6795;51.232;3.764;2023-03-31T16:08:13;12.82;;;1.10;;